sensor_id;sensor_type;location;lat;lon;timestamp;P1;durP1;ratioP1;P2;durP2;ratioP2
78402;SDS011;67687;43.508;1.504;2024-01-30T00:01:00;9.30;;;5.00;;
78402;SDS011;67687;43.508;1.504;2024-01-30T00:03:27;9.23;;;4.95;;
78402;SDS011;67687;43.508;1.504;2024-01-30T00:05:54;12.52;;;5.18;;
78402;SDS011;67687;43.508;1.504;2024-01-30T00:08:22;10.90;;;5.00;;
78402;SDS011;67687;43.508;1.504;2024-01-30T00:10:49;8.90;;;4.22;;
78402;SDS011;67687;43.508;1.504;2024-01-30T00:13:15;8.93;;;4.37;;
78402;SDS011;67687;43.508;1.504;2024-01-30T00:15:44;9.07;;;5.07;;
78402;SDS011;67687;43.508;1.504;2024-01-30T00:18:11;6.90;;;3.88;;
78402;SDS011;67687;43.508;1.504;2024-01-30T00:20:37;11.80;;;5.05;;
78402;SDS011;67687;43.508;1.504;2024-01-30T00:23:04;9.27;;;4.82;;
78402;SDS011;67687;43.508;1.504;2024-01-30T00:25:31;9.07;;;4.13;;
78402;SDS011;67687;43.508;1.504;2024-01-30T00:27:58;13.00;;;4.97;;
78402;SDS011;67687;43.508;1.504;2024-01-30T00:30:25;9.23;;;4.70;;
78402;SDS011;67687;43.508;1.504;2024-01-30T00:32:51;11.00;;;3.90;;
78402;SDS011;67687;43.508;1.504;2024-01-30T00:35:18;13.35;;;5.13;;
78402;SDS011;67687;43.508;1.504;2024-01-30T00:37:45;12.40;;;5.20;;
78402;SDS011;67687;43.508;1.504;2024-01-30T00:40:11;10.10;;;5.00;;
78402;SDS011;67687;43.508;1.504;2024-01-30T00:42:42;15.18;;;5.55;;
78402;SDS011;67687;43.508;1.504;2024-01-30T00:45:11;13.75;;;5.30;;
78402;SDS011;67687;43.508;1.504;2024-01-30T00:47:37;15.35;;;5.25;;
78402;SDS011;67687;43.508;1.504;2024-01-30T00:50:04;10.00;;;4.30;;
78402;SDS011;67687;43.508;1.504;2024-01-30T00:52:31;10.18;;;4.55;;
78402;SDS011;67687;43.508;1.504;2024-01-30T00:54:58;12.77;;;4.80;;
78402;SDS011;67687;43.508;1.504;2024-01-30T00:57:24;10.27;;;4.20;;
78402;SDS011;67687;43.508;1.504;2024-01-30T00:59:53;12.63;;;4.38;;
78402;SDS011;67687;43.508;1.504;2024-01-30T01:02:19;13.37;;;4.90;;
78402;SDS011;67687;43.508;1.504;2024-01-30T01:04:46;12.38;;;4.97;;
78402;SDS011;67687;43.508;1.504;2024-01-30T01:07:12;10.60;;;4.80;;
78402;SDS011;67687;43.508;1.504;2024-01-30T01:09:39;10.93;;;4.38;;
78402;SDS011;67687;43.508;1.504;2024-01-30T01:12:05;10.30;;;4.82;;
78402;SDS011;67687;43.508;1.504;2024-01-30T01:14:32;10.07;;;3.90;;
78402;SDS011;67687;43.508;1.504;2024-01-30T01:17:00;8.63;;;4.20;;
78402;SDS011;67687;43.508;1.504;2024-01-30T01:19:26;11.18;;;4.60;;
78402;SDS011;67687;43.508;1.504;2024-01-30T01:21:53;11.15;;;4.55;;
78402;SDS011;67687;43.508;1.504;2024-01-30T01:24:19;13.05;;;5.20;;
78402;SDS011;67687;43.508;1.504;2024-01-30T01:26:46;13.57;;;4.20;;
78402;SDS011;67687;43.508;1.504;2024-01-30T01:29:12;13.90;;;5.50;;
78402;SDS011;67687;43.508;1.504;2024-01-30T01:31:40;11.65;;;4.43;;
78402;SDS011;67687;43.508;1.504;2024-01-30T01:34:10;10.25;;;4.85;;
78402;SDS011;67687;43.508;1.504;2024-01-30T01:36:36;15.25;;;5.38;;
78402;SDS011;67687;43.508;1.504;2024-01-30T01:39:03;11.77;;;4.97;;
78402;SDS011;67687;43.508;1.504;2024-01-30T01:41:29;11.73;;;4.95;;
78402;SDS011;67687;43.508;1.504;2024-01-30T01:43:56;13.30;;;4.20;;
78402;SDS011;67687;43.508;1.504;2024-01-30T01:46:22;12.68;;;5.30;;
78402;SDS011;67687;43.508;1.504;2024-01-30T01:48:49;12.57;;;4.70;;
78402;SDS011;67687;43.508;1.504;2024-01-30T01:51:17;12.67;;;4.60;;
78402;SDS011;67687;43.508;1.504;2024-01-30T01:53:43;10.48;;;3.70;;
78402;SDS011;67687;43.508;1.504;2024-01-30T01:56:10;13.38;;;4.70;;
78402;SDS011;67687;43.508;1.504;2024-01-30T01:58:37;11.45;;;4.18;;
78402;SDS011;67687;43.508;1.504;2024-01-30T02:01:04;11.70;;;4.65;;
78402;SDS011;67687;43.508;1.504;2024-01-30T02:03:30;6.73;;;3.27;;
78402;SDS011;67687;43.508;1.504;2024-01-30T02:05:57;10.98;;;4.55;;
78402;SDS011;67687;43.508;1.504;2024-01-30T02:08:25;14.48;;;4.93;;
78402;SDS011;67687;43.508;1.504;2024-01-30T02:10:52;11.75;;;4.75;;
78402;SDS011;67687;43.508;1.504;2024-01-30T02:13:19;8.52;;;3.78;;
78402;SDS011;67687;43.508;1.504;2024-01-30T02:15:48;9.57;;;4.80;;
78402;SDS011;67687;43.508;1.504;2024-01-30T02:18:15;10.63;;;3.90;;
78402;SDS011;67687;43.508;1.504;2024-01-30T02:20:41;11.20;;;4.35;;
78402;SDS011;67687;43.508;1.504;2024-01-30T02:23:09;11.75;;;4.47;;
78402;SDS011;67687;43.508;1.504;2024-01-30T02:25:39;8.88;;;4.72;;
78402;SDS011;67687;43.508;1.504;2024-01-30T02:28:09;13.00;;;4.07;;
78402;SDS011;67687;43.508;1.504;2024-01-30T02:30:35;15.50;;;5.47;;
78402;SDS011;67687;43.508;1.504;2024-01-30T02:33:02;11.05;;;4.30;;
78402;SDS011;67687;43.508;1.504;2024-01-30T02:35:28;10.15;;;3.95;;
78402;SDS011;67687;43.508;1.504;2024-01-30T02:37:55;11.05;;;4.55;;
78402;SDS011;67687;43.508;1.504;2024-01-30T02:40:23;9.47;;;4.40;;
78402;SDS011;67687;43.508;1.504;2024-01-30T02:42:49;9.98;;;4.20;;
78402;SDS011;67687;43.508;1.504;2024-01-30T02:45:16;10.05;;;3.47;;
78402;SDS011;67687;43.508;1.504;2024-01-30T02:47:42;9.48;;;3.90;;
78402;SDS011;67687;43.508;1.504;2024-01-30T02:50:09;9.95;;;3.38;;
78402;SDS011;67687;43.508;1.504;2024-01-30T02:52:35;14.57;;;5.50;;
78402;SDS011;67687;43.508;1.504;2024-01-30T02:55:02;9.82;;;4.72;;
78402;SDS011;67687;43.508;1.504;2024-01-30T02:57:30;8.77;;;3.70;;
78402;SDS011;67687;43.508;1.504;2024-01-30T02:59:57;10.57;;;4.30;;
78402;SDS011;67687;43.508;1.504;2024-01-30T03:02:23;9.85;;;3.65;;
78402;SDS011;67687;43.508;1.504;2024-01-30T03:04:49;11.40;;;4.10;;
78402;SDS011;67687;43.508;1.504;2024-01-30T03:07:16;9.52;;;4.45;;
78402;SDS011;67687;43.508;1.504;2024-01-30T03:09:42;11.07;;;4.57;;
78402;SDS011;67687;43.508;1.504;2024-01-30T03:12:09;9.85;;;3.67;;
78402;SDS011;67687;43.508;1.504;2024-01-30T03:14:37;10.55;;;3.65;;
78402;SDS011;67687;43.508;1.504;2024-01-30T03:17:03;12.00;;;4.07;;
78402;SDS011;67687;43.508;1.504;2024-01-30T03:19:30;9.48;;;4.45;;
78402;SDS011;67687;43.508;1.504;2024-01-30T03:21:56;9.35;;;4.47;;
78402;SDS011;67687;43.508;1.504;2024-01-30T03:24:23;11.95;;;3.88;;
78402;SDS011;67687;43.508;1.504;2024-01-30T03:26:49;13.20;;;4.43;;
78402;SDS011;67687;43.508;1.504;2024-01-30T03:29:16;12.13;;;4.40;;
78402;SDS011;67687;43.508;1.504;2024-01-30T03:31:44;10.93;;;4.50;;
78402;SDS011;67687;43.508;1.504;2024-01-30T03:34:10;7.40;;;3.80;;
78402;SDS011;67687;43.508;1.504;2024-01-30T03:36:37;7.80;;;3.60;;
78402;SDS011;67687;43.508;1.504;2024-01-30T03:39:03;12.20;;;4.78;;
78402;SDS011;67687;43.508;1.504;2024-01-30T03:41:29;12.13;;;4.63;;
78402;SDS011;67687;43.508;1.504;2024-01-30T03:43:56;12.73;;;4.78;;
78402;SDS011;67687;43.508;1.504;2024-01-30T03:46:22;11.90;;;4.55;;
78402;SDS011;67687;43.508;1.504;2024-01-30T03:48:50;12.43;;;3.97;;
78402;SDS011;67687;43.508;1.504;2024-01-30T03:51:17;10.48;;;4.20;;
78402;SDS011;67687;43.508;1.504;2024-01-30T03:53:43;10.93;;;4.07;;
78402;SDS011;67687;43.508;1.504;2024-01-30T03:56:11;10.85;;;3.78;;
78402;SDS011;67687;43.508;1.504;2024-01-30T03:58:38;10.50;;;4.20;;
78402;SDS011;67687;43.508;1.504;2024-01-30T04:01:04;12.10;;;4.50;;
78402;SDS011;67687;43.508;1.504;2024-01-30T04:03:31;11.65;;;4.47;;
78402;SDS011;67687;43.508;1.504;2024-01-30T04:05:58;14.53;;;4.63;;
78402;SDS011;67687;43.508;1.504;2024-01-30T04:08:25;12.18;;;4.32;;
78402;SDS011;67687;43.508;1.504;2024-01-30T04:10:51;12.80;;;4.10;;
78402;SDS011;67687;43.508;1.504;2024-01-30T04:13:18;12.20;;;4.05;;
78402;SDS011;67687;43.508;1.504;2024-01-30T04:15:44;8.10;;;3.42;;
78402;SDS011;67687;43.508;1.504;2024-01-30T04:18:11;9.47;;;4.13;;
78402;SDS011;67687;43.508;1.504;2024-01-30T04:20:37;14.05;;;4.85;;
78402;SDS011;67687;43.508;1.504;2024-01-30T04:23:05;11.73;;;3.88;;
78402;SDS011;67687;43.508;1.504;2024-01-30T04:25:32;10.27;;;3.92;;
78402;SDS011;67687;43.508;1.504;2024-01-30T04:27:58;11.85;;;3.78;;
78402;SDS011;67687;43.508;1.504;2024-01-30T04:30:25;11.67;;;4.17;;
78402;SDS011;67687;43.508;1.504;2024-01-30T04:32:51;10.15;;;4.28;;
78402;SDS011;67687;43.508;1.504;2024-01-30T04:35:17;7.97;;;4.03;;
78402;SDS011;67687;43.508;1.504;2024-01-30T04:37:45;9.85;;;4.15;;
78402;SDS011;67687;43.508;1.504;2024-01-30T04:40:13;11.02;;;4.65;;
78402;SDS011;67687;43.508;1.504;2024-01-30T04:42:40;12.17;;;4.50;;
78402;SDS011;67687;43.508;1.504;2024-01-30T04:45:06;12.20;;;4.75;;
78402;SDS011;67687;43.508;1.504;2024-01-30T04:47:33;11.00;;;4.13;;
78402;SDS011;67687;43.508;1.504;2024-01-30T04:49:59;11.13;;;3.85;;
78402;SDS011;67687;43.508;1.504;2024-01-30T04:52:26;9.43;;;3.17;;
78402;SDS011;67687;43.508;1.504;2024-01-30T04:54:52;13.40;;;4.33;;
78402;SDS011;67687;43.508;1.504;2024-01-30T04:57:20;10.85;;;3.55;;
78402;SDS011;67687;43.508;1.504;2024-01-30T04:59:47;12.85;;;4.57;;
78402;SDS011;67687;43.508;1.504;2024-01-30T05:02:13;12.88;;;4.47;;
78402;SDS011;67687;43.508;1.504;2024-01-30T05:04:40;14.10;;;5.05;;
78402;SDS011;67687;43.508;1.504;2024-01-30T05:07:07;10.83;;;4.20;;
78402;SDS011;67687;43.508;1.504;2024-01-30T05:09:33;11.05;;;4.20;;
78402;SDS011;67687;43.508;1.504;2024-01-30T05:12:00;11.27;;;4.22;;
78402;SDS011;67687;43.508;1.504;2024-01-30T05:14:27;15.73;;;4.43;;
78402;SDS011;67687;43.508;1.504;2024-01-30T05:16:54;14.40;;;4.55;;
78402;SDS011;67687;43.508;1.504;2024-01-30T05:19:20;10.83;;;4.30;;
78402;SDS011;67687;43.508;1.504;2024-01-30T05:21:48;14.07;;;4.68;;
78402;SDS011;67687;43.508;1.504;2024-01-30T05:24:15;12.50;;;4.35;;
78402;SDS011;67687;43.508;1.504;2024-01-30T05:26:41;14.38;;;4.40;;
78402;SDS011;67687;43.508;1.504;2024-01-30T05:29:07;10.65;;;4.13;;
78402;SDS011;67687;43.508;1.504;2024-01-30T05:31:35;12.27;;;4.03;;
78402;SDS011;67687;43.508;1.504;2024-01-30T05:34:02;8.15;;;3.35;;
78402;SDS011;67687;43.508;1.504;2024-01-30T05:36:29;11.82;;;4.65;;
78402;SDS011;67687;43.508;1.504;2024-01-30T05:38:55;8.95;;;4.05;;
78402;SDS011;67687;43.508;1.504;2024-01-30T05:41:22;11.20;;;4.03;;
78402;SDS011;67687;43.508;1.504;2024-01-30T05:43:48;12.70;;;4.50;;
78402;SDS011;67687;43.508;1.504;2024-01-30T05:46:15;11.48;;;4.30;;
78402;SDS011;67687;43.508;1.504;2024-01-30T05:48:43;12.38;;;3.28;;
78402;SDS011;67687;43.508;1.504;2024-01-30T05:51:09;15.23;;;4.32;;
78402;SDS011;67687;43.508;1.504;2024-01-30T05:53:36;14.57;;;4.78;;
78402;SDS011;67687;43.508;1.504;2024-01-30T05:56:03;14.23;;;4.40;;
78402;SDS011;67687;43.508;1.504;2024-01-30T05:58:30;13.73;;;4.60;;
78402;SDS011;67687;43.508;1.504;2024-01-30T06:00:57;12.57;;;3.90;;
78402;SDS011;67687;43.508;1.504;2024-01-30T06:03:23;9.70;;;4.55;;
78402;SDS011;67687;43.508;1.504;2024-01-30T06:05:51;9.23;;;3.90;;
78402;SDS011;67687;43.508;1.504;2024-01-30T06:08:18;10.27;;;4.53;;
78402;SDS011;67687;43.508;1.504;2024-01-30T06:10:44;11.18;;;4.10;;
78402;SDS011;67687;43.508;1.504;2024-01-30T06:13:10;9.85;;;3.90;;
78402;SDS011;67687;43.508;1.504;2024-01-30T06:15:37;12.18;;;4.20;;
78402;SDS011;67687;43.508;1.504;2024-01-30T06:18:04;11.40;;;4.50;;
78402;SDS011;67687;43.508;1.504;2024-01-30T06:20:30;10.50;;;4.10;;
78402;SDS011;67687;43.508;1.504;2024-01-30T06:22:58;10.57;;;3.92;;
78402;SDS011;67687;43.508;1.504;2024-01-30T06:25:25;10.48;;;4.53;;
78402;SDS011;67687;43.508;1.504;2024-01-30T06:27:51;13.57;;;3.95;;
78402;SDS011;67687;43.508;1.504;2024-01-30T06:30:18;12.95;;;4.55;;
78402;SDS011;67687;43.508;1.504;2024-01-30T06:32:44;10.30;;;3.60;;
78402;SDS011;67687;43.508;1.504;2024-01-30T06:35:11;11.45;;;4.45;;
78402;SDS011;67687;43.508;1.504;2024-01-30T06:37:37;12.95;;;4.00;;
78402;SDS011;67687;43.508;1.504;2024-01-30T06:40:06;16.23;;;4.90;;
78402;SDS011;67687;43.508;1.504;2024-01-30T06:42:33;9.73;;;3.80;;
78402;SDS011;67687;43.508;1.504;2024-01-30T06:44:59;12.40;;;3.93;;
78402;SDS011;67687;43.508;1.504;2024-01-30T06:47:26;14.07;;;4.20;;
78402;SDS011;67687;43.508;1.504;2024-01-30T06:49:53;15.43;;;5.03;;
78402;SDS011;67687;43.508;1.504;2024-01-30T06:52:20;14.27;;;4.35;;
78402;SDS011;67687;43.508;1.504;2024-01-30T06:54:46;10.02;;;4.45;;
78402;SDS011;67687;43.508;1.504;2024-01-30T06:57:14;12.87;;;4.30;;
78402;SDS011;67687;43.508;1.504;2024-01-30T06:59:41;9.13;;;3.90;;
78402;SDS011;67687;43.508;1.504;2024-01-30T07:02:09;10.77;;;4.10;;
78402;SDS011;67687;43.508;1.504;2024-01-30T07:04:35;10.05;;;4.15;;
78402;SDS011;67687;43.508;1.504;2024-01-30T07:07:02;11.52;;;3.40;;
78402;SDS011;67687;43.508;1.504;2024-01-30T07:09:30;10.13;;;4.00;;
78402;SDS011;67687;43.508;1.504;2024-01-30T07:11:56;13.85;;;4.20;;
78402;SDS011;67687;43.508;1.504;2024-01-30T07:14:24;11.20;;;4.10;;
78402;SDS011;67687;43.508;1.504;2024-01-30T07:16:51;11.75;;;3.55;;
78402;SDS011;67687;43.508;1.504;2024-01-30T07:19:17;11.98;;;4.00;;
78402;SDS011;67687;43.508;1.504;2024-01-30T07:21:44;11.57;;;3.60;;
78402;SDS011;67687;43.508;1.504;2024-01-30T07:24:11;11.00;;;4.13;;
78402;SDS011;67687;43.508;1.504;2024-01-30T07:26:37;13.75;;;4.15;;
78402;SDS011;67687;43.508;1.504;2024-01-30T07:29:04;13.32;;;4.80;;
78402;SDS011;67687;43.508;1.504;2024-01-30T07:31:32;15.43;;;4.20;;
78402;SDS011;67687;43.508;1.504;2024-01-30T07:33:58;15.20;;;3.70;;
78402;SDS011;67687;43.508;1.504;2024-01-30T07:36:25;12.23;;;4.32;;
78402;SDS011;67687;43.508;1.504;2024-01-30T07:38:51;11.85;;;3.85;;
78402;SDS011;67687;43.508;1.504;2024-01-30T07:41:19;12.38;;;4.57;;
78402;SDS011;67687;43.508;1.504;2024-01-30T07:43:45;12.68;;;3.35;;
78402;SDS011;67687;43.508;1.504;2024-01-30T07:46:12;12.87;;;3.83;;
78402;SDS011;67687;43.508;1.504;2024-01-30T07:48:40;15.52;;;3.72;;
78402;SDS011;67687;43.508;1.504;2024-01-30T07:51:06;9.90;;;3.95;;
78402;SDS011;67687;43.508;1.504;2024-01-30T07:53:33;8.93;;;3.33;;
78402;SDS011;67687;43.508;1.504;2024-01-30T07:56:00;12.00;;;3.92;;
78402;SDS011;67687;43.508;1.504;2024-01-30T07:58:26;16.40;;;5.10;;
78402;SDS011;67687;43.508;1.504;2024-01-30T08:00:53;9.75;;;3.92;;
78402;SDS011;67687;43.508;1.504;2024-01-30T08:03:21;12.35;;;4.57;;
78402;SDS011;67687;43.508;1.504;2024-01-30T08:05:49;13.00;;;4.75;;
78402;SDS011;67687;43.508;1.504;2024-01-30T08:08:16;11.88;;;4.07;;
78402;SDS011;67687;43.508;1.504;2024-01-30T08:10:42;15.10;;;8.30;;
78402;SDS011;67687;43.508;1.504;2024-01-30T08:13:09;13.68;;;5.88;;
78402;SDS011;67687;43.508;1.504;2024-01-30T08:15:35;12.80;;;4.15;;
78402;SDS011;67687;43.508;1.504;2024-01-30T08:18:02;11.75;;;4.28;;
78402;SDS011;67687;43.508;1.504;2024-01-30T08:20:29;12.18;;;4.35;;
78402;SDS011;67687;43.508;1.504;2024-01-30T08:22:57;15.50;;;4.07;;
78402;SDS011;67687;43.508;1.504;2024-01-30T08:25:25;11.05;;;3.55;;
78402;SDS011;67687;43.508;1.504;2024-01-30T08:27:51;12.85;;;4.00;;
78402;SDS011;67687;43.508;1.504;2024-01-30T08:30:18;11.45;;;4.05;;
78402;SDS011;67687;43.508;1.504;2024-01-30T08:32:45;10.85;;;4.03;;
78402;SDS011;67687;43.508;1.504;2024-01-30T08:35:12;9.23;;;3.27;;
78402;SDS011;67687;43.508;1.504;2024-01-30T08:37:41;11.73;;;2.95;;
78402;SDS011;67687;43.508;1.504;2024-01-30T08:40:09;8.82;;;3.30;;
78402;SDS011;67687;43.508;1.504;2024-01-30T08:42:36;11.20;;;3.90;;
78402;SDS011;67687;43.508;1.504;2024-01-30T08:45:02;9.30;;;3.20;;
78402;SDS011;67687;43.508;1.504;2024-01-30T08:47:30;13.33;;;4.13;;
78402;SDS011;67687;43.508;1.504;2024-01-30T08:49:56;13.77;;;4.32;;
78402;SDS011;67687;43.508;1.504;2024-01-30T08:52:23;10.55;;;3.70;;
78402;SDS011;67687;43.508;1.504;2024-01-30T08:54:49;16.88;;;4.07;;
78402;SDS011;67687;43.508;1.504;2024-01-30T08:57:17;8.10;;;3.25;;
78402;SDS011;67687;43.508;1.504;2024-01-30T08:59:43;9.47;;;3.80;;
78402;SDS011;67687;43.508;1.504;2024-01-30T09:02:12;8.15;;;3.47;;
78402;SDS011;67687;43.508;1.504;2024-01-30T09:04:41;11.80;;;3.42;;
78402;SDS011;67687;43.508;1.504;2024-01-30T09:07:08;11.43;;;3.75;;
78402;SDS011;67687;43.508;1.504;2024-01-30T09:09:35;11.48;;;3.67;;
78402;SDS011;67687;43.508;1.504;2024-01-30T09:12:01;14.57;;;3.87;;
78402;SDS011;67687;43.508;1.504;2024-01-30T09:14:33;11.65;;;3.67;;
78402;SDS011;67687;43.508;1.504;2024-01-30T09:17:00;10.95;;;3.20;;
78402;SDS011;67687;43.508;1.504;2024-01-30T09:19:28;9.38;;;2.63;;
78402;SDS011;67687;43.508;1.504;2024-01-30T09:21:54;9.23;;;3.00;;
78402;SDS011;67687;43.508;1.504;2024-01-30T09:24:21;9.87;;;3.10;;
78402;SDS011;67687;43.508;1.504;2024-01-30T09:26:47;7.13;;;3.08;;
78402;SDS011;67687;43.508;1.504;2024-01-30T09:29:14;10.52;;;3.28;;
78402;SDS011;67687;43.508;1.504;2024-01-30T09:31:44;11.43;;;3.17;;
78402;SDS011;67687;43.508;1.504;2024-01-30T09:34:10;6.85;;;2.72;;
78402;SDS011;67687;43.508;1.504;2024-01-30T09:36:36;8.63;;;3.10;;
78402;SDS011;67687;43.508;1.504;2024-01-30T09:39:03;9.60;;;3.10;;
78402;SDS011;67687;43.508;1.504;2024-01-30T09:41:31;6.90;;;2.97;;
78402;SDS011;67687;43.508;1.504;2024-01-30T09:43:59;8.63;;;3.30;;
78402;SDS011;67687;43.508;1.504;2024-01-30T09:46:26;6.78;;;2.55;;
78402;SDS011;67687;43.508;1.504;2024-01-30T09:48:54;7.10;;;3.07;;
78402;SDS011;67687;43.508;1.504;2024-01-30T09:51:21;9.73;;;3.10;;
78402;SDS011;67687;43.508;1.504;2024-01-30T09:53:48;8.63;;;3.22;;
78402;SDS011;67687;43.508;1.504;2024-01-30T09:56:15;8.18;;;3.45;;
78402;SDS011;67687;43.508;1.504;2024-01-30T09:58:42;11.45;;;3.25;;
78402;SDS011;67687;43.508;1.504;2024-01-30T10:01:09;12.53;;;3.20;;
78402;SDS011;67687;43.508;1.504;2024-01-30T10:03:35;6.93;;;2.97;;
78402;SDS011;67687;43.508;1.504;2024-01-30T10:06:03;8.43;;;3.15;;
78402;SDS011;67687;43.508;1.504;2024-01-30T10:08:31;6.88;;;3.08;;
78402;SDS011;67687;43.508;1.504;2024-01-30T10:10:58;10.57;;;3.45;;
78402;SDS011;67687;43.508;1.504;2024-01-30T10:13:24;7.60;;;3.10;;
78402;SDS011;67687;43.508;1.504;2024-01-30T10:15:52;10.15;;;3.35;;
78402;SDS011;67687;43.508;1.504;2024-01-30T10:18:20;9.27;;;3.30;;
78402;SDS011;67687;43.508;1.504;2024-01-30T10:20:46;8.70;;;3.00;;
78402;SDS011;67687;43.508;1.504;2024-01-30T10:23:14;11.77;;;3.40;;
78402;SDS011;67687;43.508;1.504;2024-01-30T10:25:42;9.73;;;3.60;;
78402;SDS011;67687;43.508;1.504;2024-01-30T10:28:09;5.55;;;2.60;;
78402;SDS011;67687;43.508;1.504;2024-01-30T10:30:35;10.15;;;3.60;;
78402;SDS011;67687;43.508;1.504;2024-01-30T10:33:02;12.63;;;3.45;;
78402;SDS011;67687;43.508;1.504;2024-01-30T10:35:28;7.03;;;3.20;;
78402;SDS011;67687;43.508;1.504;2024-01-30T10:37:55;9.27;;;3.40;;
78402;SDS011;67687;43.508;1.504;2024-01-30T10:40:25;10.05;;;3.10;;
78402;SDS011;67687;43.508;1.504;2024-01-30T10:42:53;10.40;;;3.60;;
78402;SDS011;67687;43.508;1.504;2024-01-30T10:45:21;8.90;;;3.10;;
78402;SDS011;67687;43.508;1.504;2024-01-30T10:47:49;7.35;;;2.75;;
78402;SDS011;67687;43.508;1.504;2024-01-30T10:50:16;8.57;;;2.70;;
78402;SDS011;67687;43.508;1.504;2024-01-30T10:52:42;7.05;;;2.42;;
78402;SDS011;67687;43.508;1.504;2024-01-30T10:55:09;12.32;;;3.20;;
78402;SDS011;67687;43.508;1.504;2024-01-30T10:57:37;6.05;;;2.53;;
78402;SDS011;67687;43.508;1.504;2024-01-30T11:00:04;10.20;;;3.40;;
78402;SDS011;67687;43.508;1.504;2024-01-30T11:02:35;9.27;;;3.33;;
78402;SDS011;67687;43.508;1.504;2024-01-30T11:05:04;13.93;;;3.08;;
78402;SDS011;67687;43.508;1.504;2024-01-30T11:07:30;9.45;;;3.00;;
78402;SDS011;67687;43.508;1.504;2024-01-30T11:09:59;9.00;;;2.72;;
78402;SDS011;67687;43.508;1.504;2024-01-30T11:12:27;13.23;;;3.53;;
78402;SDS011;67687;43.508;1.504;2024-01-30T11:15:06;8.10;;;2.87;;
78402;SDS011;67687;43.508;1.504;2024-01-30T11:17:42;10.73;;;3.72;;
78402;SDS011;67687;43.508;1.504;2024-01-30T11:20:09;9.80;;;2.70;;
78402;SDS011;67687;43.508;1.504;2024-01-30T11:22:36;8.02;;;3.13;;
78402;SDS011;67687;43.508;1.504;2024-01-30T11:25:03;5.65;;;2.63;;
78402;SDS011;67687;43.508;1.504;2024-01-30T11:27:32;10.23;;;3.50;;
78402;SDS011;67687;43.508;1.504;2024-01-30T11:30:01;9.02;;;2.88;;
78402;SDS011;67687;43.508;1.504;2024-01-30T11:32:29;10.70;;;3.50;;
78402;SDS011;67687;43.508;1.504;2024-01-30T11:34:55;8.15;;;2.75;;
78402;SDS011;67687;43.508;1.504;2024-01-30T11:37:22;9.00;;;3.05;;
78402;SDS011;67687;43.508;1.504;2024-01-30T11:39:51;11.43;;;3.33;;
78402;SDS011;67687;43.508;1.504;2024-01-30T11:42:19;9.05;;;3.15;;
78402;SDS011;67687;43.508;1.504;2024-01-30T11:44:46;9.48;;;2.95;;
78402;SDS011;67687;43.508;1.504;2024-01-30T11:47:13;8.13;;;3.30;;
78402;SDS011;67687;43.508;1.504;2024-01-30T11:49:41;10.98;;;3.10;;
78402;SDS011;67687;43.508;1.504;2024-01-30T11:52:08;6.23;;;2.20;;
78402;SDS011;67687;43.508;1.504;2024-01-30T11:54:35;8.10;;;2.83;;
78402;SDS011;67687;43.508;1.504;2024-01-30T11:57:02;7.35;;;2.70;;
78402;SDS011;67687;43.508;1.504;2024-01-30T11:59:29;9.15;;;2.75;;
78402;SDS011;67687;43.508;1.504;2024-01-30T12:01:55;7.55;;;2.70;;
78402;SDS011;67687;43.508;1.504;2024-01-30T12:04:21;9.73;;;2.57;;
78402;SDS011;67687;43.508;1.504;2024-01-30T12:06:52;8.02;;;2.53;;
78402;SDS011;67687;43.508;1.504;2024-01-30T12:09:18;6.97;;;2.80;;
78402;SDS011;67687;43.508;1.504;2024-01-30T12:11:44;8.05;;;2.30;;
78402;SDS011;67687;43.508;1.504;2024-01-30T12:14:11;8.77;;;2.90;;
78402;SDS011;67687;43.508;1.504;2024-01-30T12:16:38;7.77;;;2.30;;
78402;SDS011;67687;43.508;1.504;2024-01-30T12:19:04;10.80;;;3.53;;
78402;SDS011;67687;43.508;1.504;2024-01-30T12:21:31;8.90;;;2.60;;
78402;SDS011;67687;43.508;1.504;2024-01-30T12:23:59;7.57;;;2.70;;
78402;SDS011;67687;43.508;1.504;2024-01-30T12:26:26;8.50;;;3.15;;
78402;SDS011;67687;43.508;1.504;2024-01-30T12:28:54;10.90;;;3.07;;
78402;SDS011;67687;43.508;1.504;2024-01-30T12:31:25;8.95;;;3.17;;
78402;SDS011;67687;43.508;1.504;2024-01-30T12:33:51;8.38;;;2.50;;
78402;SDS011;67687;43.508;1.504;2024-01-30T12:36:18;12.00;;;2.70;;
78402;SDS011;67687;43.508;1.504;2024-01-30T12:38:45;9.13;;;3.03;;
78402;SDS011;67687;43.508;1.504;2024-01-30T12:41:12;8.13;;;2.03;;
78402;SDS011;67687;43.508;1.504;2024-01-30T12:43:39;10.45;;;3.13;;
78402;SDS011;67687;43.508;1.504;2024-01-30T12:46:05;9.30;;;2.75;;
78402;SDS011;67687;43.508;1.504;2024-01-30T12:48:32;9.43;;;2.80;;
78402;SDS011;67687;43.508;1.504;2024-01-30T12:50:58;8.65;;;2.65;;
78402;SDS011;67687;43.508;1.504;2024-01-30T12:53:25;9.87;;;2.90;;
78402;SDS011;67687;43.508;1.504;2024-01-30T12:55:52;9.80;;;3.05;;
78402;SDS011;67687;43.508;1.504;2024-01-30T12:58:20;7.93;;;2.63;;
78402;SDS011;67687;43.508;1.504;2024-01-30T13:00:47;8.40;;;2.60;;
78402;SDS011;67687;43.508;1.504;2024-01-30T13:03:13;7.65;;;2.95;;
78402;SDS011;67687;43.508;1.504;2024-01-30T13:05:40;6.77;;;2.30;;
78402;SDS011;67687;43.508;1.504;2024-01-30T13:08:07;7.78;;;2.35;;
78402;SDS011;67687;43.508;1.504;2024-01-30T13:10:33;8.68;;;2.83;;
78402;SDS011;67687;43.508;1.504;2024-01-30T13:12:59;7.20;;;2.05;;
78402;SDS011;67687;43.508;1.504;2024-01-30T13:15:27;8.57;;;2.88;;
78402;SDS011;67687;43.508;1.504;2024-01-30T13:17:54;7.03;;;2.70;;
78402;SDS011;67687;43.508;1.504;2024-01-30T13:20:20;8.73;;;2.50;;
78402;SDS011;67687;43.508;1.504;2024-01-30T13:22:47;8.60;;;2.35;;
78402;SDS011;67687;43.508;1.504;2024-01-30T13:25:14;7.55;;;2.47;;
78402;SDS011;67687;43.508;1.504;2024-01-30T13:27:41;9.68;;;2.45;;
78402;SDS011;67687;43.508;1.504;2024-01-30T13:30:07;11.20;;;2.97;;
78402;SDS011;67687;43.508;1.504;2024-01-30T13:32:36;10.50;;;2.53;;
78402;SDS011;67687;43.508;1.504;2024-01-30T13:35:03;7.75;;;2.55;;
78402;SDS011;67687;43.508;1.504;2024-01-30T13:37:29;6.88;;;2.67;;
78402;SDS011;67687;43.508;1.504;2024-01-30T13:39:56;7.38;;;2.90;;
78402;SDS011;67687;43.508;1.504;2024-01-30T13:42:22;7.50;;;2.47;;
78402;SDS011;67687;43.508;1.504;2024-01-30T13:44:49;6.95;;;2.60;;
78402;SDS011;67687;43.508;1.504;2024-01-30T13:47:15;7.25;;;3.20;;
78402;SDS011;67687;43.508;1.504;2024-01-30T13:49:45;6.90;;;2.33;;
78402;SDS011;67687;43.508;1.504;2024-01-30T13:52:12;6.00;;;2.50;;
78402;SDS011;67687;43.508;1.504;2024-01-30T13:54:38;7.70;;;3.03;;
78402;SDS011;67687;43.508;1.504;2024-01-30T13:57:05;10.52;;;2.80;;
78402;SDS011;67687;43.508;1.504;2024-01-30T13:59:32;6.45;;;2.58;;
78402;SDS011;67687;43.508;1.504;2024-01-30T14:01:59;8.68;;;1.73;;
78402;SDS011;67687;43.508;1.504;2024-01-30T14:04:25;7.85;;;2.53;;
78402;SDS011;67687;43.508;1.504;2024-01-30T14:06:53;7.63;;;2.37;;
78402;SDS011;67687;43.508;1.504;2024-01-30T14:09:20;7.22;;;2.42;;
78402;SDS011;67687;43.508;1.504;2024-01-30T14:11:46;7.05;;;2.50;;
78402;SDS011;67687;43.508;1.504;2024-01-30T14:14:13;9.68;;;2.70;;
78402;SDS011;67687;43.508;1.504;2024-01-30T14:16:39;8.07;;;3.25;;
78402;SDS011;67687;43.508;1.504;2024-01-30T14:19:05;9.23;;;2.60;;
78402;SDS011;67687;43.508;1.504;2024-01-30T14:21:32;9.95;;;2.95;;
78402;SDS011;67687;43.508;1.504;2024-01-30T14:24:00;7.25;;;2.47;;
78402;SDS011;67687;43.508;1.504;2024-01-30T14:26:26;8.07;;;2.88;;
78402;SDS011;67687;43.508;1.504;2024-01-30T14:28:53;10.93;;;3.33;;
78402;SDS011;67687;43.508;1.504;2024-01-30T14:31:20;7.97;;;2.60;;
78402;SDS011;67687;43.508;1.504;2024-01-30T14:33:49;7.15;;;2.60;;
78402;SDS011;67687;43.508;1.504;2024-01-30T14:36:15;9.35;;;2.33;;
78402;SDS011;67687;43.508;1.504;2024-01-30T14:38:42;9.13;;;2.20;;